Latest Weather Observations for Taree Airport

IDN60801

Issued at 4:02 pm EST Friday 28 April 2017 (issued every 30 minutes, with the page automatically refreshed every 10 minutes)

About weather observations | Map of weather stations | Latest weather observations for NSW | Other Formats
Station Details ID: 060141 Name: TAREE AIRPORT AWS Lat: -31.89 Lon: 152.51 Height: 8.0 m
Data from the previous 72 hours. | See also: Recent months at Taree Airport
Date/Time
EST
Temp
°C
App
Temp
°C
Dew
Point
°C
Rel
Hum
%
Delta-T
°C
Wind Press
QNH
hPa
Press
MSL
hPa
Rain since
9am
mm
Dir  Spd
km/h
Gust
km/h
Spd
kts
Gust
kts
28/04:00pm 19.0 15.8 10.0 56 4.8 SSW 17 24 9 13 1019.3 1019.3 0.0
28/03:30pm 19.2 14.7 10.2 56 4.8 SSW 24 32 13 17 1019.3 1019.3 0.0
28/03:00pm 20.2 15.9 10.6 54 5.2 SW 24 33 13 18 1019.3 1019.3 0.0
28/02:30pm 19.5 14.8 10.5 56 4.9 S 26 33 14 18 1019.0 1019.0 0.0
28/02:00pm 20.2 15.2 11.1 56 5.0 SW 28 35 15 19 1018.9 1018.9 0.0
28/01:30pm 19.1 15.1 10.6 58 4.6 S 22 33 12 18 1018.9 1018.9 0.0
28/01:00pm 19.6 16.3 11.6 60 4.4 SSW 20 28 11 15 1019.1 1019.1 0.0
28/12:30pm 18.7 14.5 11.0 61 4.2 SSW 24 33 13 18 1019.5 1019.5 0.0
28/12:00pm 19.4 14.9 11.4 60 4.4 SW 26 43 14 23 1019.8 1019.8 0.0
28/11:30am 18.6 14.3 10.9 61 4.2 SW 24 35 13 19 1020.2 1020.2 0.0
28/11:00am 18.0 12.9 10.6 62 4.0 SW 28 37 15 20 1020.4 1020.4 0.0
28/10:30am 18.0 13.2 10.4 61 4.1 SW 26 35 14 19 1020.6 1020.6 0.0
28/10:00am 17.6 13.6 10.5 63 3.8 SW 22 35 12 19 1020.5 1020.5 0.0
28/09:30am 16.1 12.0 10.0 67 3.2 SW 22 33 12 18 1020.5 1020.5 0.0
28/09:00am 15.8 11.2 9.7 67 3.2 WSW 24 35 13 19 1020.3 1020.3 0.0
28/08:30am 15.4 11.6 9.7 69 3.0 SW 20 32 11 17 1020.4 1020.4 0.0
28/08:00am 15.3 11.7 9.7 69 2.9 WSW 19 28 10 15 1019.8 1019.8 0.0
28/07:30am 14.9 10.6 9.5 70 2.8 WSW 22 33 12 18 1019.4 1019.4 0.0
28/07:00am 14.6 10.7 9.4 71 2.7 SW 20 30 11 16 1019.1 1019.1 0.0
28/06:30am 14.2 10.0 9.6 74 2.4 WSW 22 32 12 17 1018.5 1018.5 0.0
28/06:00am 14.2 10.1 10.0 76 2.2 WSW 22 33 12 18 1018.1 1018.1 0.0
28/05:30am 14.1 9.9 9.9 76 2.2 WSW 22 32 12 17 1017.9 1017.9 0.0
28/05:00am 14.1 10.3 9.9 76 2.2 WSW 20 30 11 16 1017.7 1017.7 0.0
28/04:30am 14.1 9.6 9.9 76 2.2 WSW 24 35 13 19 1017.3 1017.3 0.0
28/04:00am 14.1 10.4 10.1 77 2.1 WSW 20 32 11 17 1017.2 1017.2 0.0
28/03:30am 14.2 9.7 10.2 77 2.1 WSW 24 37 13 20 1016.9 1016.9 0.0
28/03:00am 14.4 10.5 9.6 73 2.5 WSW 20 30 11 16 1016.7 1016.7 0.0
28/02:30am 14.2 10.9 9.6 74 2.4 WSW 17 28 9 15 1016.6 1016.6 0.0
28/02:00am 13.8 10.1 9.6 76 2.1 W 19 30 10 16 1016.6 1016.6 0.0
28/01:30am 13.7 9.9 9.9 78 2.0 WSW 20 30 11 16 1016.8 1016.8 0.0
28/01:00am 14.3 10.5 9.7 74 2.4 WSW 20 30 11 16 1017.0 1017.0 0.0
28/12:30am 14.6 10.8 9.2 70 2.8 WSW 19 30 10 16 1016.9 1016.9 0.0
28/12:00am 14.8 12.0 8.5 66 3.2 W 13 19 7 10 1017.1 1017.1 0.0
 
Date/Time
EST
Temp
°C
App
Temp
°C
Dew
Point
°C
Rel
Hum
%
Delta-T
°C
Wind Press
QNH
hPa
Press
MSL
hPa
Rain since
9am
mm
Dir  Spd
km/h
Gust
km/h
Spd
kts
Gust
kts
27/11:30pm 14.7 12.2 8.0 64 3.3 W 11 15 6 8 1017.2 1017.2 0.0
27/11:00pm 14.5 12.0 8.0 65 3.2 W 11 15 6 8 1017.2 1017.2 0.0
27/10:30pm 14.7 12.6 8.2 65 3.3 WSW 9 13 5 7 1017.5 1017.5 0.0
27/10:00pm 14.7 12.5 7.7 63 3.5 W 9 13 5 7 1017.5 1017.5 0.0
27/09:30pm 14.7 11.6 7.3 61 3.6 WNW 13 17 7 9 1017.3 1017.3 0.0
27/09:00pm 14.6 12.2 7.2 61 3.6 W 9 11 5 6 1017.2 1017.2 0.0
27/08:30pm 14.6 12.3 7.4 62 3.5 W 9 13 5 7 1017.1 1017.1 0.0
27/08:00pm 14.5 11.8 7.3 62 3.5 WNW 11 15 6 8 1016.8 1016.8 0.0
27/07:30pm 14.2 11.5 7.3 63 3.4 WNW 11 15 6 8 1016.5 1016.5 0.0
27/07:00pm 14.6 12.0 7.6 63 3.5 WNW 11 15 6 8 1016.2 1016.2 0.0
27/06:30pm 14.8 12.2 7.8 63 3.5 WNW 11 15 6 8 1015.9 1015.9 0.0
27/06:00pm 15.4 13.2 7.7 60 3.8 WNW 9 13 5 7 1015.7 1015.7 0.0
27/05:30pm 15.9 13.3 7.9 59 4.0 W 11 15 6 8 1015.3 1015.3 0.0
27/05:00pm 16.3 13.0 8.0 58 4.2 SW 15 17 8 9 1015.0 1015.0 0.0
27/04:30pm 16.7 13.0 7.9 56 4.4 SW 17 24 9 13 1014.8 1014.8 0.0
27/04:00pm 17.2 12.1 7.8 54 4.7 SW 24 32 13 17 1014.6 1014.6 0.0
27/03:30pm 17.7 14.1 8.3 54 4.8 SW 17 22 9 12 1014.1 1014.1 0.0
27/03:00pm 17.7 13.6 7.7 52 5.1 SW 19 28 10 15 1013.9 1013.9 0.0
27/02:30pm 17.4 13.0 7.2 51 5.1 SW 20 30 11 16 1013.7 1013.7 0.0
27/02:00pm 17.5 13.3 7.5 52 5.0 SW 19 26 10 14 1013.6 1013.6 0.0
27/01:30pm 18.1 13.0 7.8 51 5.2 SW 24 32 13 17 1013.4 1013.4 0.0
27/01:00pm 18.1 13.5 8.1 52 5.1 SW 22 33 12 18 1013.5 1013.5 0.0
27/12:30pm 18.2 13.2 8.2 52 5.1 SW 24 33 13 18 1013.6 1013.6 0.0
27/12:00pm 18.2 13.9 7.9 51 5.3 SW 20 28 11 15 1013.7 1013.7 0.0
27/11:30am 17.8 12.3 7.5 51 5.2 SW 26 35 14 19 1013.7 1013.7 0.0
27/11:00am 17.7 11.8 7.4 51 5.2 SW 28 41 15 22 1013.8 1013.8 0.0
27/10:30am 18.0 12.9 7.7 51 5.2 SW 24 33 13 18 1013.7 1013.7 0.0
27/10:00am 17.5 13.5 8.1 54 4.8 WSW 19 28 10 15 1013.9 1013.9 0.0
27/09:30am 16.7 12.3 7.4 54 4.6 WSW 20 33 11 18 1013.9 1013.9 0.0
27/09:00am 16.1 11.6 7.1 55 4.5 WSW 20 30 11 16 1013.7 1013.7 5.2
27/08:30am 15.4 11.5 7.2 58 4.0 W 17 32 9 17 1013.5 1013.5 5.2
27/08:00am 14.3 10.0 7.1 62 3.5 W 19 26 10 14 1013.1 1013.1 5.2
27/07:30am 13.3 9.4 6.9 65 3.1 W 17 22 9 12 1012.8 1012.8 5.2
27/07:00am 12.6 9.1 7.1 69 2.7 W 15 22 8 12 1012.3 1012.3 5.2
27/06:30am 12.4 9.6 7.1 70 2.6 W 11 17 6 9 1012.4 1012.4 5.2
27/06:00am 12.5 9.2 6.5 67 2.9 W 13 17 7 9 1012.2 1012.2 5.2
27/05:30am 12.5 9.1 6.1 65 3.0 W 13 19 7 10 1012.0 1012.0 5.2
27/05:00am 12.1 8.7 5.9 66 2.9 WNW 13 20 7 11 1011.7 1011.7 5.2
27/04:30am 12.1 8.7 5.9 66 2.9 WNW 13 17 7 9 1011.1 1011.1 5.2
27/04:00am 12.5 8.7 5.7 63 3.2 W 15 20 8 11 1010.7 1010.7 5.2
27/03:30am 12.5 8.7 5.7 63 3.2 W 15 20 8 11 1010.6 1010.6 5.2
27/03:00am 12.7 8.9 5.6 62 3.3 WSW 15 24 8 13 1010.5 1010.5 5.2
27/02:30am 12.8 8.9 5.2 60 3.5 W 15 20 8 11 1010.5 1010.5 5.2
27/02:00am 12.6 9.0 5.1 60 3.5 W 13 20 7 11 1010.7 1010.7 5.2
27/01:30am 12.7 8.3 4.9 59 3.6 W 17 22 9 12 1010.5 1010.5 5.2
27/01:00am 12.6 8.7 5.3 61 3.4 W 15 24 8 13 1010.8 1010.8 5.2
27/12:30am 12.5 8.5 5.0 60 3.5 WNW 15 19 8 10 1010.8 1010.8 5.2
27/12:00am 12.8 8.8 5.0 59 3.6 W 15 20 8 11 1010.8 1010.8 5.2
 
Date/Time
EST
Temp
°C
App
Temp
°C
Dew
Point
°C
Rel
Hum
%
Delta-T
°C
Wind Press
QNH
hPa
Press
MSL
hPa
Rain since
9am
mm
Dir  Spd
km/h
Gust
km/h
Spd
kts
Gust
kts
26/11:30pm 12.4 9.1 4.6 59 3.6 WNW 11 15 6 8 1010.6 1010.6 5.2
26/11:00pm 13.1 9.4 4.5 56 3.9 W 13 17 7 9 1010.3 1010.3 5.2
26/10:30pm 13.5 9.8 4.4 54 4.2 WNW 13 17 7 9 1010.3 1010.3 5.2
26/10:00pm 14.1 10.0 4.4 52 4.5 W 15 26 8 14 1010.2 1010.2 5.2
26/09:30pm 14.6 9.5 4.3 50 4.8 W 20 32 11 17 1009.8 1009.8 5.2
26/09:00pm 14.9 9.5 4.6 50 4.8 WNW 22 33 12 18 1009.4 1009.4 5.2
26/08:30pm 15.4 10.8 6.7 56 4.2 WNW 20 28 11 15 1009.0 1009.0 5.2
26/08:00pm 16.2 10.7 7.4 56 4.4 NW 26 33 14 18 1008.0 1008.0 5.2
26/07:30pm 16.1 11.7 7.6 57 4.2 WNW 20 35 11 19 1008.0 1008.0 5.2
26/07:00pm 16.6 12.0 8.1 57 4.3 WSW 22 32 12 17 1008.1 1008.1 5.2
26/06:30pm 16.4 11.9 8.6 60 4.0 WSW 22 32 12 17 1007.9 1007.9 5.2
26/06:00pm 16.3 10.4 10.4 68 3.1 SW 32 52 17 28 1006.5 1006.5 5.2
26/05:59pm 16.5 10.6 10.4 67 3.2 SW 32 52 17 28 1006.5 1006.5 5.2
26/05:47pm 18.0 15.7 11.6 66 3.5 SW 15 41 8 22 1005.8 1005.8 5.2
26/05:30pm 18.3 18.7 15.2 82 1.8 SSE 7 11 4 6 1005.1 1005.0 5.2
26/05:00pm 19.5 20.2 15.6 78 2.3 NNW 6 9 3 5 1004.7 1004.6 5.2
26/04:30pm 20.2 21.2 15.4 74 2.8 NW 4 9 2 5 1003.8 1003.7 5.2
26/04:00pm 20.8 22.3 14.7 68 3.6 CALM 0 0 0 0 1003.6 1003.5 5.2
26/03:30pm 19.5 20.4 15.2 76 2.5 ESE 4 9 2 5 1003.8 1003.7 5.2
26/03:00pm 20.6 18.2 12.6 60 4.5 SSW 17 26 9 14 1003.7 1003.6 5.0
26/02:30pm 22.7 23.0 16.9 70 3.6 NNW 11 17 6 9 1003.0 1002.9 5.0
26/02:00pm 22.1 22.7 17.7 76 2.7 NNW 11 20 6 11 1003.0 1002.9 5.0
26/01:30pm 21.2 22.0 18.2 83 1.9 NNE 11 17 6 9 1003.2 1003.1 5.0
26/01:00pm 20.0 20.4 18.1 89 1.2 NNE 13 17 7 9 1004.0 1003.9 5.0
26/12:30pm 19.4 19.9 18.4 94 0.6 NNE 13 19 7 10 1004.8 1004.7 5.0
26/12:00pm 18.5 19.0 17.5 94 0.6 N 11 15 6 8 1005.4 1005.4 5.0
26/11:30am 17.8 16.9 16.8 94 0.6 NW 17 20 9 11 1006.8 1006.8 5.0
26/11:00am 18.1 17.0 16.4 90 1.0 SW 17 24 9 13 1007.0 1007.0 0.2
26/10:30am 18.8 19.2 18.1 96 0.4 WSW 13 17 7 9 1007.4 1007.4 0.2
26/10:00am 18.6 19.6 17.8 95 0.5 WSW 9 11 5 6 1007.1 1007.1 0.2
26/09:30am 18.4 19.5 18.1 98 0.2 W 9 15 5 8 1007.4 1007.4 0.2
26/09:00am 18.1 19.5 17.9 99 0.1 WNW 7 13 4 7 1007.9 1007.9 2.4
26/08:30am 17.7 19.2 17.7 100 0.0 WNW 6 7 3 4 1008.1 1008.1 2.4
26/08:00am 17.2 18.9 17.2 100 0.0 W 4 7 2 4 1008.3 1008.3 2.4
26/07:30am 16.7 19.0 16.7 100 0.0 CALM 0 0 0 0 1008.5 1008.5 2.4
26/07:00am 15.9 17.9 15.9 100 0.0 CALM 0 0 0 0 1008.1 1008.1 2.4
26/06:30am 15.8 16.4 15.8 100 0.0 NNW 7 9 4 5 1008.5 1008.5 2.4
26/06:00am 15.9 17.1 15.9 100 0.0 SSE 4 7 2 4 1008.1 1008.1 2.4
26/05:44am 16.0 16.9 16.0 100 0.0 N 6 7 3 4 1008.4 1008.4 2.4
26/05:30am 15.8 16.3 15.6 99 0.1 N 7 7 4 4 1008.3 1008.3 2.4
26/05:27am 15.1 15.4 14.9 99 0.1 N 7 7 4 4 1008.3 1008.3 2.4
26/05:00am 17.1 19.2 17.1 100 0.0 NW 2 11 1 6 1008.2 1008.2 2.4
26/04:30am 17.3 18.7 17.3 100 0.0 NW 6 7 3 4 1007.8 1007.8 2.4
26/04:00am 17.7 18.7 17.7 100 0.0 WSW 9 13 5 7 1008.1 1008.1 2.4
26/03:30am 17.9 19.3 17.9 100 0.0 NW 7 7 4 4 1008.1 1008.1 2.4
26/03:00am 18.0 19.7 18.0 100 0.0 N 6 7 3 4 1008.4 1008.4 2.4
26/02:30am 18.1 21.0 18.1 100 0.0 CALM 0 0 0 0 1008.6 1008.6 2.4
26/02:00am 18.3 21.2 18.3 100 0.0 CALM 0 0 0 0 1008.8 1008.8 2.4
26/01:30am 18.6 21.7 18.6 100 0.0 CALM 0 0 0 0 1008.7 1008.7 2.4
26/01:00am 18.6 20.5 18.6 100 0.0 WSW 6 9 3 5 1009.2 1009.2 2.2
26/12:30am 18.4 20.6 18.4 100 0.0 NNW 4 11 2 6 1009.5 1009.5 2.2
26/12:00am 18.5 21.5 18.5 100 0.0 CALM 0 6 0 3 1009.8 1009.8 2.2
 
Date/Time
EST
Temp
°C
App
Temp
°C
Dew
Point
°C
Rel
Hum
%
Delta-T
°C
Wind Press
QNH
hPa
Press
MSL
hPa
Rain since
9am
mm
Dir  Spd
km/h
Gust
km/h
Spd
kts
Gust
kts
25/11:30pm 18.6 21.6 18.4 99 0.1 CALM 0 7 0 4 1010.1 1010.1 2.2
25/11:00pm 18.8 21.1 18.6 99 0.1 NNE 4 9 2 5 1010.1 1010.1 2.2
25/10:30pm 19.0 21.4 18.8 99 0.1 WNW 4 9 2 5 1010.8 1010.8 2.2
25/10:00pm 18.9 21.9 18.4 97 0.3 CALM 0 0 0 0 1011.0 1011.0 2.2
25/09:30pm 19.0 22.0 18.5 97 0.3 CALM 0 0 0 0 1011.4 1011.4 2.2
25/09:00pm 19.1 20.4 18.4 96 0.4 NE 9 11 5 6 1011.5 1011.5 2.2
25/08:30pm 19.9 21.4 18.0 89 1.2 WNW 7 11 4 6 1012.1 1012.1 1.4
25/08:00pm 20.9 22.1 17.3 80 2.2 W 7 11 4 6 1011.7 1011.7 0.2
25/07:30pm 22.0 22.6 16.7 72 3.2 N 9 13 5 7 1010.8 1010.8 0.0
25/07:00pm 22.3 22.4 16.6 70 3.5 NNE 11 17 6 9 1010.4 1010.4 0.0
25/06:30pm 22.1 22.5 16.4 70 3.5 NNE 9 15 5 8 1010.1 1010.1 0.0
25/06:00pm 20.6 21.4 16.4 77 2.5 NE 7 11 4 6 1010.0 1010.0 0.0
25/05:30pm 21.9 22.0 16.6 72 3.2 NNE 11 13 6 7 1009.9 1009.9 0.0
25/05:00pm 22.7 22.3 16.3 67 3.9 NE 13 17 7 9 1009.9 1009.9 0.0
25/04:30pm 24.0 22.7 15.8 60 5.0 NE 17 22 9 12 1010.0 1010.0 0.0

Other Formats:

Comma delimited format used in spreadsheet applications
http://www.bom.gov.au/fwo/IDN60801/IDN60801.95784.axf

JavaScript Object Notation format (JSON) in row-major order
http://www.bom.gov.au/fwo/IDN60801/IDN60801.95784.json